sensor_id;sensor_type;location;lat;lon;timestamp;P1;durP1;ratioP1;P2;durP2;ratioP2
2039;SDS011;1025;42.686;23.350;2023-04-08T00:01:00;20.17;;;18.17;;
2039;SDS011;1025;42.686;23.350;2023-04-08T00:04:26;27.67;;;19.17;;
2039;SDS011;1025;42.686;23.350;2023-04-08T00:07:51;22.03;;;18.83;;
2039;SDS011;1025;42.686;23.350;2023-04-08T00:11:17;32.90;;;21.73;;
2039;SDS011;1025;42.686;23.350;2023-04-08T00:14:43;22.53;;;20.10;;
2039;SDS011;1025;42.686;23.350;2023-04-08T00:18:09;21.50;;;19.50;;
2039;SDS011;1025;42.686;23.350;2023-04-08T00:21:35;22.13;;;19.83;;
2039;SDS011;1025;42.686;23.350;2023-04-08T00:25:00;23.40;;;19.30;;
2039;SDS011;1025;42.686;23.350;2023-04-08T00:28:26;23.83;;;19.37;;
2039;SDS011;1025;42.686;23.350;2023-04-08T00:31:52;24.13;;;21.57;;
2039;SDS011;1025;42.686;23.350;2023-04-08T00:35:09;23.70;;;21.30;;
2039;SDS011;1025;42.686;23.350;2023-04-08T00:38:34;23.03;;;20.57;;
2039;SDS011;1025;42.686;23.350;2023-04-08T00:42:00;24.93;;;21.67;;
2039;SDS011;1025;42.686;23.350;2023-04-08T00:45:25;26.67;;;22.03;;
2039;SDS011;1025;42.686;23.350;2023-04-08T00:48:52;20.97;;;18.60;;
2039;SDS011;1025;42.686;23.350;2023-04-08T00:52:18;21.07;;;18.17;;
2039;SDS011;1025;42.686;23.350;2023-04-08T00:55:44;25.83;;;21.43;;
2039;SDS011;1025;42.686;23.350;2023-04-08T00:59:10;22.60;;;19.80;;
2039;SDS011;1025;42.686;23.350;2023-04-08T01:02:38;23.23;;;20.80;;
2039;SDS011;1025;42.686;23.350;2023-04-08T01:06:14;22.33;;;19.97;;
2039;SDS011;1025;42.686;23.350;2023-04-08T01:09:45;23.17;;;19.83;;
2039;SDS011;1025;42.686;23.350;2023-04-08T01:13:15;21.80;;;19.43;;
2039;SDS011;1025;42.686;23.350;2023-04-08T01:16:43;19.87;;;17.87;;
2039;SDS011;1025;42.686;23.350;2023-04-08T01:20:11;20.63;;;17.80;;
2039;SDS011;1025;42.686;23.350;2023-04-08T01:23:40;19.43;;;17.53;;
2039;SDS011;1025;42.686;23.350;2023-04-08T01:27:10;21.20;;;17.90;;
2039;SDS011;1025;42.686;23.350;2023-04-08T01:30:37;18.87;;;16.87;;
2039;SDS011;1025;42.686;23.350;2023-04-08T01:34:04;20.70;;;18.70;;
2039;SDS011;1025;42.686;23.350;2023-04-08T01:37:29;19.60;;;17.60;;
2039;SDS011;1025;42.686;23.350;2023-04-08T01:40:56;17.37;;;15.77;;
2039;SDS011;1025;42.686;23.350;2023-04-08T01:44:25;26.10;;;18.23;;
2039;SDS011;1025;42.686;23.350;2023-04-08T01:47:51;18.57;;;16.63;;
2039;SDS011;1025;42.686;23.350;2023-04-08T01:51:17;16.57;;;14.83;;
2039;SDS011;1025;42.686;23.350;2023-04-08T01:54:43;19.83;;;17.33;;
2039;SDS011;1025;42.686;23.350;2023-04-08T01:58:07;18.33;;;16.53;;
2039;SDS011;1025;42.686;23.350;2023-04-08T02:01:37;15.73;;;14.23;;
2039;SDS011;1025;42.686;23.350;2023-04-08T02:05:03;17.03;;;15.33;;
2039;SDS011;1025;42.686;23.350;2023-04-08T02:08:22;17.80;;;15.97;;
2039;SDS011;1025;42.686;23.350;2023-04-08T02:11:46;22.63;;;20.30;;
2039;SDS011;1025;42.686;23.350;2023-04-08T02:15:12;21.13;;;18.40;;
2039;SDS011;1025;42.686;23.350;2023-04-08T02:18:48;21.53;;;19.10;;
2039;SDS011;1025;42.686;23.350;2023-04-08T02:22:24;21.83;;;19.63;;
2039;SDS011;1025;42.686;23.350;2023-04-08T02:25:54;27.03;;;22.30;;
2039;SDS011;1025;42.686;23.350;2023-04-08T02:29:20;30.43;;;24.40;;
2039;SDS011;1025;42.686;23.350;2023-04-08T02:32:47;25.90;;;23.17;;
2039;SDS011;1025;42.686;23.350;2023-04-08T02:36:14;26.10;;;22.80;;
2039;SDS011;1025;42.686;23.350;2023-04-08T02:39:39;27.93;;;22.13;;
2039;SDS011;1025;42.686;23.350;2023-04-08T02:43:04;24.63;;;22.03;;
2039;SDS011;1025;42.686;23.350;2023-04-08T02:46:29;25.90;;;21.30;;
2039;SDS011;1025;42.686;23.350;2023-04-08T02:49:56;23.40;;;20.63;;
2039;SDS011;1025;42.686;23.350;2023-04-08T02:53:22;19.97;;;18.07;;
2039;SDS011;1025;42.686;23.350;2023-04-08T02:56:47;21.27;;;19.20;;
2039;SDS011;1025;42.686;23.350;2023-04-08T03:00:13;20.60;;;18.37;;
2039;SDS011;1025;42.686;23.350;2023-04-08T03:03:39;21.27;;;19.17;;
2039;SDS011;1025;42.686;23.350;2023-04-08T03:07:06;22.13;;;19.80;;
2039;SDS011;1025;42.686;23.350;2023-04-08T03:10:32;22.23;;;19.70;;
2039;SDS011;1025;42.686;23.350;2023-04-08T03:13:57;21.93;;;19.33;;
2039;SDS011;1025;42.686;23.350;2023-04-08T03:17:22;23.33;;;20.87;;
2039;SDS011;1025;42.686;23.350;2023-04-08T03:20:48;27.13;;;19.90;;
2039;SDS011;1025;42.686;23.350;2023-04-08T03:24:14;21.10;;;18.97;;
2039;SDS011;1025;42.686;23.350;2023-04-08T03:27:40;21.13;;;18.90;;
2039;SDS011;1025;42.686;23.350;2023-04-08T03:31:05;24.90;;;20.77;;
2039;SDS011;1025;42.686;23.350;2023-04-08T03:34:28;20.47;;;18.40;;
2039;SDS011;1025;42.686;23.350;2023-04-08T03:37:53;23.20;;;20.20;;
2039;SDS011;1025;42.686;23.350;2023-04-08T03:41:20;21.70;;;19.50;;
2039;SDS011;1025;42.686;23.350;2023-04-08T03:44:45;22.60;;;19.97;;
2039;SDS011;1025;42.686;23.350;2023-04-08T03:48:11;22.00;;;19.73;;
2039;SDS011;1025;42.686;23.350;2023-04-08T03:51:36;27.07;;;22.40;;
2039;SDS011;1025;42.686;23.350;2023-04-08T03:55:01;27.50;;;22.13;;
2039;SDS011;1025;42.686;23.350;2023-04-08T03:58:29;22.50;;;18.63;;
2039;SDS011;1025;42.686;23.350;2023-04-08T04:01:54;20.73;;;18.63;;
2039;SDS011;1025;42.686;23.350;2023-04-08T04:05:20;20.90;;;18.80;;
2039;SDS011;1025;42.686;23.350;2023-04-08T04:08:45;21.30;;;19.00;;
2039;SDS011;1025;42.686;23.350;2023-04-08T04:12:11;21.43;;;18.90;;
2039;SDS011;1025;42.686;23.350;2023-04-08T04:15:39;22.70;;;20.30;;
2039;SDS011;1025;42.686;23.350;2023-04-08T04:19:08;21.37;;;18.30;;
2039;SDS011;1025;42.686;23.350;2023-04-08T04:22:34;19.90;;;17.93;;
2039;SDS011;1025;42.686;23.350;2023-04-08T04:25:59;20.00;;;18.00;;
2039;SDS011;1025;42.686;23.350;2023-04-08T04:29:24;22.37;;;18.10;;
2039;SDS011;1025;42.686;23.350;2023-04-08T04:32:48;23.67;;;19.20;;
2039;SDS011;1025;42.686;23.350;2023-04-08T04:36:14;21.57;;;18.27;;
2039;SDS011;1025;42.686;23.350;2023-04-08T04:39:39;29.47;;;22.67;;
2039;SDS011;1025;42.686;23.350;2023-04-08T04:43:04;23.67;;;18.20;;
2039;SDS011;1025;42.686;23.350;2023-04-08T04:46:30;14.50;;;13.10;;
2039;SDS011;1025;42.686;23.350;2023-04-08T04:49:58;14.37;;;12.47;;
2039;SDS011;1025;42.686;23.350;2023-04-08T04:53:24;20.47;;;14.47;;
2039;SDS011;1025;42.686;23.350;2023-04-08T04:56:50;16.27;;;14.57;;
2039;SDS011;1025;42.686;23.350;2023-04-08T05:00:15;16.63;;;14.87;;
2039;SDS011;1025;42.686;23.350;2023-04-08T05:03:40;14.77;;;13.27;;
2039;SDS011;1025;42.686;23.350;2023-04-08T05:07:07;16.57;;;13.43;;
2039;SDS011;1025;42.686;23.350;2023-04-08T05:10:33;15.87;;;12.07;;
2039;SDS011;1025;42.686;23.350;2023-04-08T05:13:58;13.63;;;10.90;;
2039;SDS011;1025;42.686;23.350;2023-04-08T05:17:24;14.10;;;11.30;;
2039;SDS011;1025;42.686;23.350;2023-04-08T05:20:49;14.20;;;12.70;;
2039;SDS011;1025;42.686;23.350;2023-04-08T05:24:16;12.70;;;11.50;;
2039;SDS011;1025;42.686;23.350;2023-04-08T05:27:41;15.40;;;13.90;;
2039;SDS011;1025;42.686;23.350;2023-04-08T05:31:06;12.77;;;11.57;;
2039;SDS011;1025;42.686;23.350;2023-04-08T05:34:31;12.73;;;11.63;;
2039;SDS011;1025;42.686;23.350;2023-04-08T05:37:57;12.47;;;11.27;;
2039;SDS011;1025;42.686;23.350;2023-04-08T05:41:23;13.90;;;12.60;;
2039;SDS011;1025;42.686;23.350;2023-04-08T05:44:49;14.40;;;13.00;;
2039;SDS011;1025;42.686;23.350;2023-04-08T05:48:14;14.07;;;12.53;;
2039;SDS011;1025;42.686;23.350;2023-04-08T05:51:41;15.00;;;13.40;;
2039;SDS011;1025;42.686;23.350;2023-04-08T05:55:08;16.87;;;13.60;;
2039;SDS011;1025;42.686;23.350;2023-04-08T05:58:34;15.40;;;12.20;;
2039;SDS011;1025;42.686;23.350;2023-04-08T06:02:00;18.67;;;14.87;;
2039;SDS011;1025;42.686;23.350;2023-04-08T06:05:25;15.53;;;14.03;;
2039;SDS011;1025;42.686;23.350;2023-04-08T06:08:51;15.37;;;13.97;;
2039;SDS011;1025;42.686;23.350;2023-04-08T06:12:16;14.67;;;13.13;;
2039;SDS011;1025;42.686;23.350;2023-04-08T06:15:43;16.27;;;11.97;;
2039;SDS011;1025;42.686;23.350;2023-04-08T06:19:08;16.27;;;14.57;;
2039;SDS011;1025;42.686;23.350;2023-04-08T06:22:34;19.17;;;14.97;;
2039;SDS011;1025;42.686;23.350;2023-04-08T06:26:19;18.01;;;16.22;;
2039;SDS011;1025;42.686;23.350;2023-04-08T06:29:44;14.30;;;12.87;;
2039;SDS011;1025;42.686;23.350;2023-04-08T06:33:11;15.10;;;13.20;;
2039;SDS011;1025;42.686;23.350;2023-04-08T06:36:36;14.70;;;13.50;;
2039;SDS011;1025;42.686;23.350;2023-04-08T06:40:03;13.80;;;12.43;;
2039;SDS011;1025;42.686;23.350;2023-04-08T06:43:28;17.63;;;14.73;;
2039;SDS011;1025;42.686;23.350;2023-04-08T06:46:56;17.90;;;15.90;;
2039;SDS011;1025;42.686;23.350;2023-04-08T06:50:21;19.33;;;15.60;;
2039;SDS011;1025;42.686;23.350;2023-04-08T06:53:46;17.10;;;15.50;;
2039;SDS011;1025;42.686;23.350;2023-04-08T06:57:12;16.27;;;13.20;;
2039;SDS011;1025;42.686;23.350;2023-04-08T07:00:37;16.10;;;14.60;;
2039;SDS011;1025;42.686;23.350;2023-04-08T07:04:04;15.20;;;13.70;;
2039;SDS011;1025;42.686;23.350;2023-04-08T07:07:29;20.27;;;16.37;;
2039;SDS011;1025;42.686;23.350;2023-04-08T07:10:55;16.80;;;15.10;;
2039;SDS011;1025;42.686;23.350;2023-04-08T07:14:21;16.10;;;14.13;;
2039;SDS011;1025;42.686;23.350;2023-04-08T07:17:47;18.40;;;16.60;;
2039;SDS011;1025;42.686;23.350;2023-04-08T07:21:13;15.37;;;12.70;;
2039;SDS011;1025;42.686;23.350;2023-04-08T07:24:39;14.90;;;13.53;;
2039;SDS011;1025;42.686;23.350;2023-04-08T07:28:04;15.50;;;13.93;;
2039;SDS011;1025;42.686;23.350;2023-04-08T07:31:29;16.30;;;13.50;;
2039;SDS011;1025;42.686;23.350;2023-04-08T07:34:54;15.73;;;13.00;;
2039;SDS011;1025;42.686;23.350;2023-04-08T07:38:21;14.03;;;12.73;;
2039;SDS011;1025;42.686;23.350;2023-04-08T07:41:46;14.23;;;12.53;;
2039;SDS011;1025;42.686;23.350;2023-04-08T07:45:12;14.63;;;11.50;;
2039;SDS011;1025;42.686;23.350;2023-04-08T07:48:40;15.17;;;11.93;;
2039;SDS011;1025;42.686;23.350;2023-04-08T07:52:05;16.60;;;13.57;;
2039;SDS011;1025;42.686;23.350;2023-04-08T07:55:33;12.83;;;11.73;;
2039;SDS011;1025;42.686;23.350;2023-04-08T07:58:58;15.97;;;14.47;;
2039;SDS011;1025;42.686;23.350;2023-04-08T08:02:24;13.40;;;12.10;;
2039;SDS011;1025;42.686;23.350;2023-04-08T08:05:49;13.90;;;12.70;;
2039;SDS011;1025;42.686;23.350;2023-04-08T08:09:14;13.40;;;11.97;;
2039;SDS011;1025;42.686;23.350;2023-04-08T08:12:41;14.57;;;13.27;;
2039;SDS011;1025;42.686;23.350;2023-04-08T08:16:07;15.40;;;13.97;;
2039;SDS011;1025;42.686;23.350;2023-04-08T08:19:32;18.00;;;15.23;;
2039;SDS011;1025;42.686;23.350;2023-04-08T08:22:58;14.37;;;13.07;;
2039;SDS011;1025;42.686;23.350;2023-04-08T08:26:23;16.27;;;13.20;;
2039;SDS011;1025;42.686;23.350;2023-04-08T08:29:50;21.33;;;13.50;;
2039;SDS011;1025;42.686;23.350;2023-04-08T08:33:16;14.17;;;12.70;;
2039;SDS011;1025;42.686;23.350;2023-04-08T08:36:41;14.03;;;12.60;;
2039;SDS011;1025;42.686;23.350;2023-04-08T08:40:07;16.80;;;14.20;;
2039;SDS011;1025;42.686;23.350;2023-04-08T08:43:32;16.60;;;14.90;;
2039;SDS011;1025;42.686;23.350;2023-04-08T08:46:59;14.80;;;13.30;;
2039;SDS011;1025;42.686;23.350;2023-04-08T08:50:21;15.77;;;13.90;;
2039;SDS011;1025;42.686;23.350;2023-04-08T08:53:47;13.40;;;11.90;;
2039;SDS011;1025;42.686;23.350;2023-04-08T08:57:15;19.80;;;15.90;;
2039;SDS011;1025;42.686;23.350;2023-04-08T09:00:41;14.53;;;13.13;;
2039;SDS011;1025;42.686;23.350;2023-04-08T09:04:08;14.80;;;13.30;;
2039;SDS011;1025;42.686;23.350;2023-04-08T09:07:34;16.77;;;14.90;;
2039;SDS011;1025;42.686;23.350;2023-04-08T09:11:10;17.40;;;15.70;;
2039;SDS011;1025;42.686;23.350;2023-04-08T09:14:36;15.03;;;12.87;;
2039;SDS011;1025;42.686;23.350;2023-04-08T09:17:57;16.77;;;15.10;;
2039;SDS011;1025;42.686;23.350;2023-04-08T09:21:34;16.50;;;14.13;;
2039;SDS011;1025;42.686;23.350;2023-04-08T09:24:59;17.37;;;14.73;;
2039;SDS011;1025;42.686;23.350;2023-04-08T09:28:32;18.10;;;14.03;;
2039;SDS011;1025;42.686;23.350;2023-04-08T09:31:59;12.70;;;11.60;;
2039;SDS011;1025;42.686;23.350;2023-04-08T09:35:25;14.93;;;13.37;;
2039;SDS011;1025;42.686;23.350;2023-04-08T09:38:53;15.97;;;14.17;;
2039;SDS011;1025;42.686;23.350;2023-04-08T09:42:19;14.97;;;12.93;;
2039;SDS011;1025;42.686;23.350;2023-04-08T09:45:47;15.90;;;14.40;;
2039;SDS011;1025;42.686;23.350;2023-04-08T09:49:22;13.63;;;12.37;;
2039;SDS011;1025;42.686;23.350;2023-04-08T09:52:52;13.77;;;11.17;;
2039;SDS011;1025;42.686;23.350;2023-04-08T09:56:26;13.57;;;12.10;;
2039;SDS011;1025;42.686;23.350;2023-04-08T09:59:59;12.73;;;11.53;;
2039;SDS011;1025;42.686;23.350;2023-04-08T10:03:28;14.47;;;12.93;;
2039;SDS011;1025;42.686;23.350;2023-04-08T10:06:56;13.10;;;11.80;;
2039;SDS011;1025;42.686;23.350;2023-04-08T10:10:23;10.90;;;9.67;;
2039;SDS011;1025;42.686;23.350;2023-04-08T10:13:49;17.07;;;13.00;;
2039;SDS011;1025;42.686;23.350;2023-04-08T10:17:30;16.27;;;13.43;;
2039;SDS011;1025;42.686;23.350;2023-04-08T10:20:56;15.63;;;13.97;;
2039;SDS011;1025;42.686;23.350;2023-04-08T10:24:22;15.60;;;11.77;;
2039;SDS011;1025;42.686;23.350;2023-04-08T10:27:58;11.90;;;10.67;;
2039;SDS011;1025;42.686;23.350;2023-04-08T10:31:39;12.13;;;10.83;;
2039;SDS011;1025;42.686;23.350;2023-04-08T10:35:06;12.47;;;10.97;;
2039;SDS011;1025;42.686;23.350;2023-04-08T10:38:35;11.63;;;10.53;;
2039;SDS011;1025;42.686;23.350;2023-04-08T10:42:02;11.37;;;10.37;;
2039;SDS011;1025;42.686;23.350;2023-04-08T10:45:29;15.67;;;12.70;;
2039;SDS011;1025;42.686;23.350;2023-04-08T10:48:58;11.43;;;10.23;;
2039;SDS011;1025;42.686;23.350;2023-04-08T10:52:23;14.57;;;13.07;;
2039;SDS011;1025;42.686;23.350;2023-04-08T10:55:50;10.43;;;9.40;;
2039;SDS011;1025;42.686;23.350;2023-04-08T10:59:26;11.90;;;9.97;;
2039;SDS011;1025;42.686;23.350;2023-04-08T11:02:59;14.33;;;12.93;;
2039;SDS011;1025;42.686;23.350;2023-04-08T11:06:24;14.50;;;10.20;;
2039;SDS011;1025;42.686;23.350;2023-04-08T11:09:51;12.23;;;11.20;;
2039;SDS011;1025;42.686;23.350;2023-04-08T11:13:17;11.63;;;10.43;;
2039;SDS011;1025;42.686;23.350;2023-04-08T11:16:47;12.90;;;11.40;;
2039;SDS011;1025;42.686;23.350;2023-04-08T11:20:13;10.57;;;9.50;;
2039;SDS011;1025;42.686;23.350;2023-04-08T11:23:37;12.07;;;10.83;;
2039;SDS011;1025;42.686;23.350;2023-04-08T11:27:02;12.37;;;11.20;;
2039;SDS011;1025;42.686;23.350;2023-04-08T11:30:28;14.97;;;11.10;;
2039;SDS011;1025;42.686;23.350;2023-04-08T11:33:55;10.77;;;9.63;;
2039;SDS011;1025;42.686;23.350;2023-04-08T11:37:24;9.53;;;8.63;;
2039;SDS011;1025;42.686;23.350;2023-04-08T11:40:52;10.90;;;9.20;;
2039;SDS011;1025;42.686;23.350;2023-04-08T11:44:18;11.67;;;10.50;;
2039;SDS011;1025;42.686;23.350;2023-04-08T11:47:46;11.00;;;10.00;;
2039;SDS011;1025;42.686;23.350;2023-04-08T11:51:26;9.60;;;8.70;;
2039;SDS011;1025;42.686;23.350;2023-04-08T11:55:06;9.60;;;8.70;;
2039;SDS011;1025;42.686;23.350;2023-04-08T11:58:41;9.43;;;8.73;;
2039;SDS011;1025;42.686;23.350;2023-04-08T12:02:06;10.20;;;8.83;;
2039;SDS011;1025;42.686;23.350;2023-04-08T12:05:33;10.30;;;8.60;;
2039;SDS011;1025;42.686;23.350;2023-04-08T12:08:58;10.23;;;9.17;;
2039;SDS011;1025;42.686;23.350;2023-04-08T12:12:24;10.67;;;9.57;;
2039;SDS011;1025;42.686;23.350;2023-04-08T12:15:49;9.80;;;8.90;;
2039;SDS011;1025;42.686;23.350;2023-04-08T12:19:15;9.73;;;8.83;;
2039;SDS011;1025;42.686;23.350;2023-04-08T12:22:42;10.60;;;9.60;;
2039;SDS011;1025;42.686;23.350;2023-04-08T12:26:08;9.73;;;8.93;;
2039;SDS011;1025;42.686;23.350;2023-04-08T12:29:33;8.27;;;7.47;;
2039;SDS011;1025;42.686;23.350;2023-04-08T12:32:58;8.43;;;7.63;;
2039;SDS011;1025;42.686;23.350;2023-04-08T12:36:25;9.00;;;7.80;;
2039;SDS011;1025;42.686;23.350;2023-04-08T12:39:52;9.37;;;8.60;;
2039;SDS011;1025;42.686;23.350;2023-04-08T12:43:17;8.33;;;7.63;;
2039;SDS011;1025;42.686;23.350;2023-04-08T12:46:43;9.90;;;7.90;;
2039;SDS011;1025;42.686;23.350;2023-04-08T12:50:08;8.97;;;8.17;;
2039;SDS011;1025;42.686;23.350;2023-04-08T12:53:34;9.13;;;8.33;;
2039;SDS011;1025;42.686;23.350;2023-04-08T12:57:01;9.60;;;8.80;;
2039;SDS011;1025;42.686;23.350;2023-04-08T13:00:26;7.10;;;6.47;;
2039;SDS011;1025;42.686;23.350;2023-04-08T13:03:52;7.93;;;7.13;;
2039;SDS011;1025;42.686;23.350;2023-04-08T13:07:19;8.60;;;7.90;;
2039;SDS011;1025;42.686;23.350;2023-04-08T13:10:44;8.23;;;7.43;;
2039;SDS011;1025;42.686;23.350;2023-04-08T13:14:11;8.27;;;7.67;;
2039;SDS011;1025;42.686;23.350;2023-04-08T13:17:37;10.50;;;9.40;;
2039;SDS011;1025;42.686;23.350;2023-04-08T13:21:03;7.50;;;6.90;;
2039;SDS011;1025;42.686;23.350;2023-04-08T13:24:28;8.50;;;7.80;;
2039;SDS011;1025;42.686;23.350;2023-04-08T13:27:53;8.20;;;7.50;;
2039;SDS011;1025;42.686;23.350;2023-04-08T13:31:20;8.20;;;7.50;;
2039;SDS011;1025;42.686;23.350;2023-04-08T13:34:44;8.73;;;8.07;;
2039;SDS011;1025;42.686;23.350;2023-04-08T13:38:10;6.37;;;5.87;;
2039;SDS011;1025;42.686;23.350;2023-04-08T13:41:34;7.97;;;7.33;;
2039;SDS011;1025;42.686;23.350;2023-04-08T13:45:00;12.30;;;11.07;;
2039;SDS011;1025;42.686;23.350;2023-04-08T13:48:26;7.57;;;6.93;;
2039;SDS011;1025;42.686;23.350;2023-04-08T13:51:52;8.13;;;7.53;;
2039;SDS011;1025;42.686;23.350;2023-04-08T13:55:17;11.33;;;10.17;;
2039;SDS011;1025;42.686;23.350;2023-04-08T13:58:42;11.27;;;8.70;;
2039;SDS011;1025;42.686;23.350;2023-04-08T14:02:07;8.17;;;7.37;;
2039;SDS011;1025;42.686;23.350;2023-04-08T14:05:34;9.13;;;8.33;;
2039;SDS011;1025;42.686;23.350;2023-04-08T14:09:00;8.40;;;7.70;;
2039;SDS011;1025;42.686;23.350;2023-04-08T14:12:25;9.40;;;8.60;;
2039;SDS011;1025;42.686;23.350;2023-04-08T14:15:50;6.83;;;6.30;;
2039;SDS011;1025;42.686;23.350;2023-04-08T14:19:15;9.20;;;8.50;;
2039;SDS011;1025;42.686;23.350;2023-04-08T14:22:42;10.77;;;9.87;;
2039;SDS011;1025;42.686;23.350;2023-04-08T14:26:07;10.93;;;9.87;;
2039;SDS011;1025;42.686;23.350;2023-04-08T14:29:33;9.70;;;8.77;;
2039;SDS011;1025;42.686;23.350;2023-04-08T14:33:00;11.20;;;10.20;;
2039;SDS011;1025;42.686;23.350;2023-04-08T14:36:26;10.27;;;9.37;;
2039;SDS011;1025;42.686;23.350;2023-04-08T14:39:53;8.80;;;7.90;;
2039;SDS011;1025;42.686;23.350;2023-04-08T14:43:18;13.30;;;11.53;;
2039;SDS011;1025;42.686;23.350;2023-04-08T14:46:44;12.63;;;11.50;;
2039;SDS011;1025;42.686;23.350;2023-04-08T14:50:10;9.60;;;8.70;;
2039;SDS011;1025;42.686;23.350;2023-04-08T14:53:35;9.13;;;8.43;;
2039;SDS011;1025;42.686;23.350;2023-04-08T14:57:02;8.53;;;7.83;;
2039;SDS011;1025;42.686;23.350;2023-04-08T15:00:27;11.80;;;9.40;;
2039;SDS011;1025;42.686;23.350;2023-04-08T15:03:55;8.90;;;8.20;;
2039;SDS011;1025;42.686;23.350;2023-04-08T15:07:20;11.37;;;9.00;;
2039;SDS011;1025;42.686;23.350;2023-04-08T15:10:45;10.00;;;9.10;;
2039;SDS011;1025;42.686;23.350;2023-04-08T15:14:12;9.40;;;8.60;;
2039;SDS011;1025;42.686;23.350;2023-04-08T15:17:38;12.77;;;9.83;;
2039;SDS011;1025;42.686;23.350;2023-04-08T15:21:03;11.50;;;10.17;;
2039;SDS011;1025;42.686;23.350;2023-04-08T15:24:29;10.30;;;9.23;;
2039;SDS011;1025;42.686;23.350;2023-04-08T15:27:54;10.57;;;9.67;;
2039;SDS011;1025;42.686;23.350;2023-04-08T15:31:22;10.90;;;10.00;;
2039;SDS011;1025;42.686;23.350;2023-04-08T15:34:48;9.47;;;8.60;;
2039;SDS011;1025;42.686;23.350;2023-04-08T15:38:13;11.73;;;10.53;;
2039;SDS011;1025;42.686;23.350;2023-04-08T15:41:39;9.27;;;8.57;;
2039;SDS011;1025;42.686;23.350;2023-04-08T15:45:04;16.63;;;10.30;;
2039;SDS011;1025;42.686;23.350;2023-04-08T15:48:31;11.63;;;10.43;;
2039;SDS011;1025;42.686;23.350;2023-04-08T15:51:57;11.33;;;10.27;;
2039;SDS011;1025;42.686;23.350;2023-04-08T15:55:22;11.90;;;10.70;;
2039;SDS011;1025;42.686;23.350;2023-04-08T15:58:47;11.50;;;10.40;;
2039;SDS011;1025;42.686;23.350;2023-04-08T16:02:12;12.07;;;10.97;;
2039;SDS011;1025;42.686;23.350;2023-04-08T16:05:38;14.77;;;13.43;;
2039;SDS011;1025;42.686;23.350;2023-04-08T16:09:03;12.70;;;11.43;;
2039;SDS011;1025;42.686;23.350;2023-04-08T16:12:29;15.87;;;12.43;;
2039;SDS011;1025;42.686;23.350;2023-04-08T16:15:54;15.87;;;12.43;;
2039;SDS011;1025;42.686;23.350;2023-04-08T16:19:18;14.50;;;12.87;;
2039;SDS011;1025;42.686;23.350;2023-04-08T16:22:42;20.13;;;11.87;;
2039;SDS011;1025;42.686;23.350;2023-04-08T16:26:07;12.83;;;11.70;;
2039;SDS011;1025;42.686;23.350;2023-04-08T16:29:32;13.27;;;11.97;;
2039;SDS011;1025;42.686;23.350;2023-04-08T16:32:57;13.93;;;12.07;;
2039;SDS011;1025;42.686;23.350;2023-04-08T16:36:23;13.33;;;12.20;;
2039;SDS011;1025;42.686;23.350;2023-04-08T16:39:49;14.00;;;12.67;;
2039;SDS011;1025;42.686;23.350;2023-04-08T16:43:14;14.37;;;13.00;;
2039;SDS011;1025;42.686;23.350;2023-04-08T16:46:40;13.40;;;12.10;;
2039;SDS011;1025;42.686;23.350;2023-04-08T16:50:06;15.57;;;14.13;;
2039;SDS011;1025;42.686;23.350;2023-04-08T16:53:31;13.77;;;12.50;;
2039;SDS011;1025;42.686;23.350;2023-04-08T16:56:56;16.10;;;14.50;;
2039;SDS011;1025;42.686;23.350;2023-04-08T17:00:22;17.43;;;15.63;;
2039;SDS011;1025;42.686;23.350;2023-04-08T17:03:47;15.20;;;13.80;;
2039;SDS011;1025;42.686;23.350;2023-04-08T17:07:07;16.40;;;14.80;;
2039;SDS011;1025;42.686;23.350;2023-04-08T17:10:33;17.30;;;14.47;;
2039;SDS011;1025;42.686;23.350;2023-04-08T17:13:59;19.47;;;17.40;;
2039;SDS011;1025;42.686;23.350;2023-04-08T17:17:25;16.63;;;15.03;;
2039;SDS011;1025;42.686;23.350;2023-04-08T17:20:50;17.23;;;15.20;;
2039;SDS011;1025;42.686;23.350;2023-04-08T17:24:16;19.10;;;17.13;;
2039;SDS011;1025;42.686;23.350;2023-04-08T17:27:40;21.73;;;18.00;;
2039;SDS011;1025;42.686;23.350;2023-04-08T17:31:08;26.20;;;19.93;;
2039;SDS011;1025;42.686;23.350;2023-04-08T17:34:34;24.37;;;19.23;;
2039;SDS011;1025;42.686;23.350;2023-04-08T17:38:00;25.53;;;19.70;;
2039;SDS011;1025;42.686;23.350;2023-04-08T17:41:25;22.27;;;19.00;;
2039;SDS011;1025;42.686;23.350;2023-04-08T17:44:51;23.43;;;19.80;;
2039;SDS011;1025;42.686;23.350;2023-04-08T17:48:18;23.57;;;19.10;;
2039;SDS011;1025;42.686;23.350;2023-04-08T17:51:43;21.90;;;18.20;;
2039;SDS011;1025;42.686;23.350;2023-04-08T17:55:10;17.60;;;14.43;;
2039;SDS011;1025;42.686;23.350;2023-04-08T17:58:36;21.93;;;17.97;;
2039;SDS011;1025;42.686;23.350;2023-04-08T18:02:01;17.70;;;15.83;;
2039;SDS011;1025;42.686;23.350;2023-04-08T18:05:28;20.97;;;18.87;;
2039;SDS011;1025;42.686;23.350;2023-04-08T18:08:53;20.37;;;17.90;;
2039;SDS011;1025;42.686;23.350;2023-04-08T18:12:19;24.57;;;19.80;;
2039;SDS011;1025;42.686;23.350;2023-04-08T18:15:44;18.50;;;16.50;;
2039;SDS011;1025;42.686;23.350;2023-04-08T18:19:10;25.50;;;19.83;;
2039;SDS011;1025;42.686;23.350;2023-04-08T18:22:37;29.47;;;19.90;;
2039;SDS011;1025;42.686;23.350;2023-04-08T18:26:03;22.97;;;19.70;;
2039;SDS011;1025;42.686;23.350;2023-04-08T18:29:29;21.63;;;19.57;;
2039;SDS011;1025;42.686;23.350;2023-04-08T18:32:55;22.23;;;19.90;;
2039;SDS011;1025;42.686;23.350;2023-04-08T18:36:20;20.73;;;18.63;;
2039;SDS011;1025;42.686;23.350;2023-04-08T18:39:47;23.90;;;18.90;;
2039;SDS011;1025;42.686;23.350;2023-04-08T18:43:12;22.97;;;20.00;;
2039;SDS011;1025;42.686;23.350;2023-04-08T18:46:38;22.83;;;19.10;;
2039;SDS011;1025;42.686;23.350;2023-04-08T18:50:03;20.67;;;18.47;;
2039;SDS011;1025;42.686;23.350;2023-04-08T18:53:29;26.50;;;18.40;;
2039;SDS011;1025;42.686;23.350;2023-04-08T18:56:55;19.33;;;17.43;;
2039;SDS011;1025;42.686;23.350;2023-04-08T19:00:21;20.50;;;18.40;;
2039;SDS011;1025;42.686;23.350;2023-04-08T19:03:46;21.80;;;19.60;;
2039;SDS011;1025;42.686;23.350;2023-04-08T19:07:12;24.53;;;21.03;;
2039;SDS011;1025;42.686;23.350;2023-04-08T19:10:37;23.40;;;21.17;;
2039;SDS011;1025;42.686;23.350;2023-04-08T19:14:02;22.47;;;20.07;;
2039;SDS011;1025;42.686;23.350;2023-04-08T19:17:28;20.73;;;18.70;;
2039;SDS011;1025;42.686;23.350;2023-04-08T19:20:53;22.10;;;19.70;;
2039;SDS011;1025;42.686;23.350;2023-04-08T19:24:18;20.90;;;18.80;;
2039;SDS011;1025;42.686;23.350;2023-04-08T19:27:44;23.83;;;20.17;;
2039;SDS011;1025;42.686;23.350;2023-04-08T19:31:14;22.27;;;19.93;;
2039;SDS011;1025;42.686;23.350;2023-04-08T19:34:40;22.07;;;19.77;;
2039;SDS011;1025;42.686;23.350;2023-04-08T19:38:05;21.50;;;19.23;;
2039;SDS011;1025;42.686;23.350;2023-04-08T19:41:31;20.47;;;18.33;;
2039;SDS011;1025;42.686;23.350;2023-04-08T19:44:56;22.20;;;19.13;;
2039;SDS011;1025;42.686;23.350;2023-04-08T19:48:23;21.23;;;18.97;;
2039;SDS011;1025;42.686;23.350;2023-04-08T19:51:48;18.63;;;16.73;;
2039;SDS011;1025;42.686;23.350;2023-04-08T19:55:14;21.30;;;17.73;;
2039;SDS011;1025;42.686;23.350;2023-04-08T19:58:40;20.50;;;18.40;;
2039;SDS011;1025;42.686;23.350;2023-04-08T20:02:05;21.00;;;18.87;;
2039;SDS011;1025;42.686;23.350;2023-04-08T20:05:33;22.40;;;18.17;;
2039;SDS011;1025;42.686;23.350;2023-04-08T20:08:58;24.20;;;21.67;;
2039;SDS011;1025;42.686;23.350;2023-04-08T20:12:24;23.07;;;20.57;;
2039;SDS011;1025;42.686;23.350;2023-04-08T20:15:49;20.20;;;18.10;;
2039;SDS011;1025;42.686;23.350;2023-04-08T20:19:14;16.70;;;15.17;;
2039;SDS011;1025;42.686;23.350;2023-04-08T20:22:42;23.80;;;19.67;;
2039;SDS011;1025;42.686;23.350;2023-04-08T20:26:09;22.20;;;19.87;;
2039;SDS011;1025;42.686;23.350;2023-04-08T20:29:34;23.13;;;20.80;;